Time;durP1;ratioP1;P1;durP2;ratioP2;P2;SDS_P1;SDS_P2;PMS_P1;PMS_P2;Temp;Humidity;BMP_temperature;BMP_pressure;BME280_temperature;BME280_humidity;BME280_pressure;Samples;Min_cycle;Max_cycle;Signal;HPM_P1;HPM_P2
2021/09/16 00:00:32;;;;;;;37.85;27.38;;;;;;;18.29;100.00;100243.84;5005682;28;20177;-68
2021/09/16 00:02:59;;;;;;;32.13;26.42;;;;;;;18.27;100.00;100248.47;5010022;28;20049;-66
2021/09/16 00:05:26;;;;;;;28.45;24.77;;;;;;;18.32;100.00;100248.88;5005531;28;20148;-68
2021/09/16 00:07:53;;;;;;;27.88;24.85;;;;;;;18.26;100.00;100246.81;4987414;28;20053;-67
2021/09/16 00:10:21;;;;;;;30.70;21.58;;;;;;;18.36;100.00;100243.09;4986477;28;20165;-67
2021/09/16 00:12:48;;;;;;;28.83;24.65;;;;;;;18.36;100.00;100247.59;5011409;28;20045;-67
2021/09/16 00:15:15;;;;;;;28.02;23.88;;;;;;;18.31;100.00;100255.19;4991607;28;20042;-67
2021/09/16 00:17:42;;;;;;;30.15;26.33;;;;;;;18.29;100.00;100257.19;5001159;28;20068;-67
2021/09/16 00:20:10;;;;;;;28.73;23.92;;;;;;;18.27;100.00;100253.81;4998431;28;20053;-67
2021/09/16 00:22:37;;;;;;;27.30;21.83;;;;;;;18.33;100.00;100253.22;5010401;28;20416;-67
2021/09/16 00:25:05;;;;;;;27.88;20.65;;;;;;;18.29;100.00;100252.69;5006377;28;20124;-68
2021/09/16 00:27:33;;;;;;;25.52;19.17;;;;;;;18.39;100.00;100249.97;5021654;28;20463;-67
2021/09/16 00:30:00;;;;;;;24.92;21.77;;;;;;;18.36;100.00;100247.59;5011122;28;20054;-66
2021/09/16 00:32:28;;;;;;;27.13;21.67;;;;;;;18.34;100.00;100253.06;5015281;28;20149;-66
2021/09/16 00:34:55;;;;;;;24.63;21.30;;;;;;;18.31;100.00;100263.19;5006372;28;20046;-67
2021/09/16 00:37:22;;;;;;;23.50;20.90;;;;;;;18.30;100.00;100256.19;5012227;28;20523;-67
2021/09/16 00:39:49;;;;;;;27.27;22.35;;;;;;;18.33;100.00;100262.06;5013122;28;20053;-67
2021/09/16 00:42:17;;;;;;;25.73;22.48;;;;;;;18.24;100.00;100260.28;5014212;28;20054;-67
2021/09/16 00:44:45;;;;;;;24.27;21.25;;;;;;;18.22;100.00;100256.91;4992186;28;20052;-68
2021/09/16 00:47:13;;;;;;;26.30;21.58;;;;;;;18.28;100.00;100266.13;5010834;28;20137;-66
2021/09/16 00:49:40;;;;;;;20.45;17.85;;;;;;;18.24;100.00;100260.28;4998004;28;20042;-67
2021/09/16 00:52:08;;;;;;;19.08;17.15;;;;;;;18.31;100.00;100265.84;5020903;28;20129;-67
2021/09/16 00:54:35;;;;;;;25.35;20.30;;;;;;;18.25;100.00;100266.47;5010239;28;20232;-67
2021/09/16 00:57:05;;;;;;;23.50;18.92;;;;;;;18.28;100.00;100276.78;5010334;28;20650;-67
2021/09/16 00:59:33;;;;;;;22.13;19.85;;;;;;;18.24;100.00;100273.63;5013421;28;20058;-66
2021/09/16 01:02:00;;;;;;;19.38;17.40;;;;;;;18.16;100.00;100274.34;4994231;28;20049;-68
2021/09/16 01:04:29;;;;;;;20.60;18.13;;;;;;;18.23;100.00;100279.91;4983765;28;20058;-67
2021/09/16 01:06:56;;;;;;;22.00;19.75;;;;;;;18.18;100.00;100277.69;4992674;28;20137;-67
2021/09/16 01:09:24;;;;;;;24.20;18.65;;;;;;;18.13;100.00;100277.28;4984809;28;20484;-67
2021/09/16 01:11:52;;;;;;;26.95;19.65;;;;;;;18.18;100.00;100276.84;4996197;28;20128;-69
2021/09/16 01:14:28;;;;;;;25.50;19.98;;;;;;;18.13;100.00;100279.13;4986063;28;20101;-66
2021/09/16 01:16:56;;;;;;;20.25;18.10;;;;;;;18.12;100.00;100275.63;5007911;28;20100;-66
2021/09/16 01:19:23;;;;;;;26.83;20.00;;;;;;;18.16;100.00;100277.00;5005946;28;20054;-67
2021/09/16 01:21:50;;;;;;;22.92;19.58;;;;;;;18.18;100.00;100275.03;5013989;28;20071;-67
2021/09/16 01:24:18;;;;;;;23.77;19.02;;;;;;;18.14;100.00;100280.78;5014387;28;20050;-68
2021/09/16 01:26:46;;;;;;;21.88;19.50;;;;;;;18.11;100.00;100284.59;5016082;28;20141;-67
2021/09/16 01:29:13;;;;;;;21.98;19.67;;;;;;;18.12;100.00;100290.78;5017867;28;20448;-67
2021/09/16 01:31:50;;;;;;;24.75;20.40;;;;;;;18.11;100.00;100289.09;4990216;28;20046;-67
2021/09/16 01:34:18;;;;;;;24.35;21.58;;;;;;;18.02;100.00;100288.16;5003835;28;20664;-68
2021/09/16 01:36:48;;;;;;;24.83;20.27;;;;;;;17.91;100.00;100283.81;5010063;28;20058;-67
2021/09/16 01:39:17;;;;;;;26.35;21.50;;;;;;;17.98;100.00;100296.59;5018053;28;20056;-67
2021/09/16 01:41:45;;;;;;;21.15;18.55;;;;;;;17.95;100.00;100295.88;4995200;28;20048;-68
2021/09/16 01:44:12;;;;;;;21.45;19.25;;;;;;;17.99;100.00;100299.09;5014267;28;20056;-68
2021/09/16 01:46:40;;;;;;;21.38;17.98;;;;;;;17.98;100.00;100300.09;5004332;28;20137;-67
2021/09/16 01:49:07;;;;;;;22.73;19.10;;;;;;;17.94;100.00;100307.53;5012130;28;20138;-68
2021/09/16 01:51:35;;;;;;;21.85;18.60;;;;;;;17.99;100.00;100303.56;5005169;28;20049;-67
2021/09/16 01:54:03;;;;;;;23.92;19.23;;;;;;;17.80;100.00;100305.31;4989739;28;20562;-67
2021/09/16 01:56:30;;;;;;;21.35;18.08;;;;;;;17.81;100.00;100308.81;4998483;28;20062;-67
2021/09/16 01:58:58;;;;;;;20.13;18.17;;;;;;;17.81;100.00;100304.34;5009918;28;20050;-68
2021/09/16 02:01:25;;;;;;;20.92;17.30;;;;;;;17.90;100.00;100305.28;5005075;28;20129;-68
2021/09/16 02:03:52;;;;;;;19.17;17.05;;;;;;;17.90;100.00;100310.63;5005550;28;20058;-67
2021/09/16 02:06:23;;;;;;;20.27;17.10;;;;;;;17.93;100.00;100310.34;4989316;28;20050;-67
2021/09/16 02:08:50;;;;;;;18.42;16.52;;;;;;;17.82;100.00;100310.50;4987964;28;20125;-67
2021/09/16 02:11:17;;;;;;;14.93;13.38;;;;;;;17.78;100.00;100314.44;5010449;28;20572;-67
2021/09/16 02:13:44;;;;;;;17.35;15.23;;;;;;;17.79;100.00;100308.16;4991946;28;20389;-66
2021/09/16 02:16:12;;;;;;;18.52;14.52;;;;;;;17.83;100.00;100313.03;5005987;28;20045;-66
2021/09/16 02:18:39;;;;;;;18.48;14.80;;;;;;;17.75;100.00;100315.56;5007672;28;20148;-66
2021/09/16 02:21:06;;;;;;;17.85;15.65;;;;;;;17.75;100.00;100307.59;5006996;28;20056;-67
2021/09/16 02:23:33;;;;;;;18.48;16.10;;;;;;;17.74;100.00;100313.88;5007345;28;20074;-67
2021/09/16 02:26:01;;;;;;;19.45;16.25;;;;;;;17.69;100.00;100314.28;4985318;28;20130;-68
2021/09/16 02:28:28;;;;;;;21.42;15.98;;;;;;;17.81;100.00;100312.31;4988723;28;20054;-67
2021/09/16 02:30:55;;;;;;;19.80;16.23;;;;;;;17.67;100.00;100318.91;5018038;28;20128;-67
2021/09/16 02:33:22;;;;;;;23.50;18.35;;;;;;;17.68;100.00;100325.91;5007090;28;20054;-66
2021/09/16 02:35:52;;;;;;;22.33;20.02;;;;;;;17.67;100.00;100326.06;5005822;28;20144;-66
2021/09/16 02:38:20;;;;;;;23.15;19.80;;;;;;;17.59;100.00;100329.44;4993984;28;20054;-68
2021/09/16 02:40:47;;;;;;;22.90;19.73;;;;;;;17.53;100.00;100322.03;5008077;28;20092;-67
2021/09/16 02:43:14;;;;;;;24.35;18.70;;;;;;;17.61;100.00;100322.16;5008523;28;20077;-67
2021/09/16 02:45:41;;;;;;;27.17;20.80;;;;;;;17.56;100.00;100331.53;5010868;28;20074;-67
2021/09/16 02:48:09;;;;;;;23.23;17.92;;;;;;;17.61;100.00;100327.47;5015120;28;20046;-67
2021/09/16 02:50:36;;;;;;;19.90;17.75;;;;;;;17.71;100.00;100325.63;5008976;28;20050;-67
2021/09/16 02:53:03;;;;;;;19.40;17.30;;;;;;;17.78;100.00;100328.56;5005170;28;20056;-66
2021/09/16 02:55:30;;;;;;;22.52;17.85;;;;;;;17.79;100.00;100330.28;5011706;28;20214;-67
2021/09/16 02:57:57;;;;;;;22.73;17.80;;;;;;;17.79;100.00;100340.09;4988264;28;20136;-67
2021/09/16 03:00:25;;;;;;;21.35;17.25;;;;;;;17.70;100.00;100339.09;5010612;23;20045;-77
2021/09/16 03:02:52;;;;;;;21.58;18.95;;;;;;;17.55;100.00;100336.00;4970171;28;20141;-77
2021/09/16 03:05:19;;;;;;;22.98;18.50;;;;;;;17.62;100.00;100333.63;4986004;28;20533;-78
2021/09/16 03:07:49;;;;;;;20.10;15.82;;;;;;;17.67;100.00;100342.88;4954638;28;20097;-77
2021/09/16 03:10:17;;;;;;;25.38;16.25;;;;;;;17.74;100.00;100343.16;4964078;28;20130;-77
2021/09/16 03:12:44;;;;;;;19.38;15.27;;;;;;;17.72;100.00;100343.28;4986158;28;20051;-74
2021/09/16 03:15:11;;;;;;;18.00;15.93;;;;;;;17.71;100.00;100340.78;4964526;28;20290;-77
2021/09/16 03:17:39;;;;;;;19.00;15.23;;;;;;;17.61;100.00;100339.97;4954372;28;20053;-77
2021/09/16 03:20:07;;;;;;;23.65;17.63;;;;;;;17.62;100.00;100347.78;4987858;28;20109;-77
2021/09/16 03:22:34;;;;;;;22.90;17.10;;;;;;;17.60;100.00;100343.56;4986253;28;20058;-77
2021/09/16 03:25:01;;;;;;;24.15;18.02;;;;;;;17.67;100.00;100350.03;4964716;28;20125;-76
2021/09/16 03:27:28;;;;;;;22.20;17.70;;;;;;;17.60;100.00;100349.72;4986019;28;20108;-77
2021/09/16 03:29:56;;;;;;;26.25;20.40;;;;;;;17.55;100.00;100344.00;4969264;28;20125;-77
2021/09/16 03:32:23;;;;;;;26.42;19.63;;;;;;;17.55;100.00;100344.00;4969822;28;20065;-76
2021/09/16 03:34:50;;;;;;;23.13;17.73;;;;;;;17.57;100.00;100354.53;4966530;28;20046;-76
2021/09/16 03:37:17;;;;;;;28.83;21.35;;;;;;;17.55;100.00;100346.66;4970467;28;20092;-76
2021/09/16 03:39:44;;;;;;;26.40;20.13;;;;;;;17.54;100.00;100346.81;4965123;28;20057;-76
2021/09/16 03:42:12;;;;;;;31.23;22.95;;;;;;;17.53;100.00;100348.66;4968500;28;20486;-77
2021/09/16 03:44:39;;;;;;;27.35;21.20;;;;;;;17.54;100.00;100346.81;4980736;28;20039;-77
2021/09/16 03:47:06;;;;;;;31.98;24.40;;;;;;;17.52;100.00;100348.78;4987441;28;20062;-77
2021/09/16 03:49:38;;;;;;;28.73;22.20;;;;;;;17.53;100.00;100345.16;4966125;28;20153;-75
2021/09/16 03:52:07;;;;;;;32.20;25.73;;;;;;;17.60;100.00;100351.56;4970113;28;20135;-77
2021/09/16 03:54:34;;;;;;;35.92;26.38;;;;;;;17.56;100.00;100355.47;4964210;28;20080;-76
2021/09/16 03:57:02;;;;;;;39.38;27.17;;;;;;;17.59;100.00;100352.56;4964506;28;20406;-77
2021/09/16 03:59:30;;;;;;;41.03;27.85;;;;;;;17.52;100.00;100360.28;4985342;28;20232;-75
2021/09/16 04:01:57;;;;;;;36.25;28.02;;;;;;;17.52;100.00;100362.94;4956620;28;20054;-76
2021/09/16 04:04:25;;;;;;;39.72;30.73;;;;;;;17.63;100.00;100361.94;4985315;28;20409;-76
2021/09/16 04:06:52;;;;;;;43.55;29.25;;;;;;;17.57;100.00;100355.38;4959076;28;20089;-77
2021/09/16 04:09:19;;;;;;;42.38;31.55;;;;;;;17.58;100.00;100364.19;4959158;28;20045;-76
2021/09/16 04:11:46;;;;;;;45.80;34.00;;;;;;;17.48;100.00;100358.88;4988735;28;20488;-77
2021/09/16 04:14:13;;;;;;;48.10;30.38;;;;;;;17.51;100.00;100363.91;4984956;28;20073;-77
2021/09/16 04:16:41;;;;;;;43.00;30.88;;;;;;;17.67;100.00;100356.19;4959876;28;20510;-77
2021/09/16 04:19:08;;;;;;;38.00;29.65;;;;;;;17.71;100.00;100360.25;4968894;28;20153;-78
2021/09/16 04:21:35;;;;;;;46.70;33.33;;;;;;;17.60;100.00;100357.72;4955098;28;20042;-77
2021/09/16 04:24:03;;;;;;;60.70;36.22;;;;;;;17.37;100.00;100370.50;4968592;28;20137;-78
2021/09/16 04:26:30;;;;;;;47.42;32.95;;;;;;;17.29;100.00;100372.16;4980815;28;20286;-76
2021/09/16 04:28:57;;;;;;;45.35;32.55;;;;;;;17.33;100.00;100371.75;4969548;28;20046;-78
2021/09/16 04:31:24;;;;;;;49.05;31.83;;;;;;;17.27;100.00;100377.63;5000541;28;20062;-77
2021/09/16 04:33:51;;;;;;;51.80;32.42;;;;;;;17.16;100.00;100388.41;4983350;28;20133;-76
2021/09/16 04:36:19;;;;;;;51.45;33.72;;;;;;;17.09;100.00;100388.13;4967621;28;20038;-78
2021/09/16 04:38:46;;;;;;;47.35;32.33;;;;;;;17.17;100.00;100395.41;4968610;28;20046;-77
2021/09/16 04:41:13;;;;;;;41.13;30.00;;;;;;;17.13;100.00;100394.84;4987585;28;20064;-78
2021/09/16 04:43:40;;;;;;;42.38;31.30;;;;;;;17.05;100.00;100394.69;4966078;28;20065;-80
2021/09/16 04:46:08;;;;;;;51.88;35.10;;;;;;;17.11;100.00;100388.84;4983213;28;20101;-77
2021/09/16 04:48:35;;;;;;;42.88;30.90;;;;;;;17.16;100.00;100385.75;4954957;28;20050;-77
2021/09/16 04:51:02;;;;;;;51.17;33.50;;;;;;;17.07;100.00;100398.06;4968179;28;20121;-77
2021/09/16 04:53:30;;;;;;;45.22;32.42;;;;;;;17.16;100.00;100396.41;4951467;28;20061;-77
2021/09/16 04:55:57;;;;;;;43.50;30.17;;;;;;;17.19;100.00;100391.63;4947990;28;20097;-77
2021/09/16 04:58:24;;;;;;;43.72;31.00;;;;;;;17.11;100.00;100394.16;4988618;28;21383;-76
2021/09/16 05:00:52;;;;;;;39.08;25.65;;;;;;;17.25;100.00;100405.38;4973255;28;20068;-76
2021/09/16 05:03:21;;;;;;;32.65;24.83;;;;;;;17.26;100.00;100407.06;4987331;28;20145;-76
2021/09/16 05:05:48;;;;;;;36.10;25.00;;;;;;;17.30;100.00;100403.97;4987855;28;20129;-77
2021/09/16 05:08:19;;;;;;;30.15;23.90;;;;;;;17.37;100.00;100410.41;4957047;28;20152;-78
2021/09/16 05:10:57;;;;;;;31.95;25.00;;;;;;;17.19;100.00;100418.22;4972324;28;20073;-77
2021/09/16 05:13:33;;;;;;;30.92;23.58;;;;;;;17.17;100.00;100408.72;4970876;28;20054;-77
2021/09/16 05:16:03;;;;;;;32.58;23.35;;;;;;;17.20;100.00;100413.75;4986584;28;20106;-77
2021/09/16 05:18:30;;;;;;;30.50;22.52;;;;;;;17.22;100.00;100422.44;4965915;28;20210;-76
2021/09/16 05:20:57;;;;;;;28.88;21.48;;;;;;;17.30;100.00;100422.59;4954411;28;20125;-78
2021/09/16 05:23:26;;;;;;;31.85;23.27;;;;;;;17.34;100.00;100412.53;4988033;28;20089;-79
2021/09/16 05:25:53;;;;;;;33.42;24.02;;;;;;;17.38;100.00;100411.25;4940581;28;20053;-77
2021/09/16 05:28:22;;;;;;;35.83;25.98;;;;;;;17.35;100.00;100419.53;4983977;28;20501;-76
2021/09/16 05:30:51;;;;;;;29.45;23.55;;;;;;;17.38;100.00;100422.75;4967757;28;20812;-76
2021/09/16 05:33:18;;;;;;;28.92;22.23;;;;;;;17.39;100.00;100429.75;4967600;28;20074;-77
2021/09/16 05:35:45;;;;;;;29.35;20.77;;;;;;;17.43;100.00;100431.16;4980186;28;20110;-76
2021/09/16 05:38:12;;;;;;;33.50;23.25;;;;;;;17.20;100.00;100440.34;4967922;28;20149;-77
2021/09/16 05:40:40;;;;;;;34.85;21.75;;;;;;;17.22;100.00;100435.75;4968081;28;20046;-77
2021/09/16 05:43:07;;;;;;;29.00;20.05;;;;;;;17.24;100.00;100431.13;4970789;28;20449;-77
2021/09/16 05:45:36;;;;;;;22.80;18.92;;;;;;;17.37;100.00;100425.53;4968023;28;20544;-75
2021/09/16 05:48:04;;;;;;;29.00;18.80;;;;;;;17.05;100.00;100431.91;4971731;28;20084;-76
2021/09/16 05:50:34;;;;;;;28.92;18.55;;;;;;;17.33;100.00;100437.44;4950098;28;20157;-77
2021/09/16 05:53:02;;;;;;;24.88;17.70;;;;;;;17.42;100.00;100432.09;4982651;28;20342;-76
2021/09/16 05:55:29;;;;;;;20.92;16.08;;;;;;;17.32;100.00;100441.06;4984511;28;20059;-78
2021/09/16 05:57:56;;;;;;;23.05;15.48;;;;;;;17.38;100.00;100449.34;4988980;28;20056;-76
2021/09/16 06:00:24;;;;;;;21.23;14.73;;;;;;;17.42;100.00;100452.56;4950897;28;20097;-75
2021/09/16 06:02:51;;;;;;;25.58;14.18;;;;;;;17.41;100.00;100448.22;4978017;28;20109;-77
2021/09/16 06:05:18;;;;;;;16.80;12.85;;;;;;;17.56;100.00;100456.63;4977179;28;20129;-78
2021/09/16 06:07:45;;;;;;;18.30;12.05;;;;;;;17.34;100.00;100455.09;4959378;28;20114;-77
2021/09/16 06:10:14;;;;;;;11.40;7.85;;;;;;;17.39;100.00;100456.34;4984817;28;20046;-77
2021/09/16 06:12:41;;;;;;;14.95;7.47;;;;;;;17.63;100.00;100460.44;4980038;28;20442;-77
2021/09/16 06:15:09;;;;;;;13.02;7.80;;;;;;;17.73;100.00;100458.59;4937680;28;20616;-79
2021/09/16 06:17:37;;;;;;;13.32;8.23;;;;;;;17.53;100.00;100454.28;4964426;28;20113;-76
2021/09/16 06:20:08;;;;;;;11.63;8.52;;;;;;;17.56;100.00;100462.81;4950523;28;20077;-77
2021/09/16 06:22:49;;;;;;;12.43;8.48;;;;;;;17.51;100.00;100457.03;4964655;28;20046;-76
2021/09/16 06:25:17;;;;;;;14.07;8.63;;;;;;;17.64;100.00;100460.28;4964323;28;20137;-79
2021/09/16 06:27:45;;;;;;;14.60;9.48;;;;;;;17.41;100.00;100466.84;4984578;28;20141;-78
2021/09/16 06:30:13;;;;;;;16.60;10.95;;;;;;;17.54;100.00;100458.59;4953444;28;20561;-78
2021/09/16 06:32:44;;;;;;;13.20;9.00;;;;;;;17.84;100.00;100455.84;4971198;28;20047;-76
2021/09/16 06:35:12;;;;;;;17.02;10.85;;;;;;;17.75;100.00;100461.19;4983692;28;20109;-77
2021/09/16 06:37:42;;;;;;;14.18;9.38;;;;;;;17.65;100.00;100472.63;4983247;28;20141;-77
2021/09/16 06:40:13;;;;;;;14.32;9.07;;;;;;;17.89;100.00;100469.56;4969783;28;20473;-77
2021/09/16 06:42:40;;;;;;;15.63;9.52;;;;;;;17.81;100.00;100472.09;4971211;28;20177;-76
2021/09/16 06:45:08;;;;;;;15.32;8.98;;;;;;;17.95;100.00;100476.97;4950580;28;20670;-77
2021/09/16 06:47:41;;;;;;;13.48;8.90;;;;;;;18.01;100.00;100478.22;4986666;28;20395;-77
2021/09/16 06:50:10;;;;;;;22.02;9.45;;;;;;;17.94;100.00;100477.13;4983607;28;20050;-78
2021/09/16 06:52:39;;;;;;;12.95;8.73;;;;;;;18.39;100.00;100480.00;4954168;28;20058;-78
2021/09/16 06:55:11;;;;;;;18.77;8.02;;;;;;;18.76;98.08;100489.88;4967828;28;20572;-77
2021/09/16 06:57:38;;;;;;;12.52;7.00;;;;;;;19.43;93.33;100493.16;4955841;28;20477;-78
2021/09/16 07:00:07;;;;;;;15.13;6.82;;;;;;;19.49;91.25;100498.72;4966253;28;20076;-76
2021/09/16 07:02:36;;;;;;;12.30;6.68;;;;;;;19.53;91.55;100493.94;4962022;28;20136;-77
2021/09/16 07:05:05;;;;;;;12.98;7.53;;;;;;;19.38;90.44;100500.78;4980298;28;20133;-76
2021/09/16 07:07:33;;;;;;;14.43;6.85;;;;;;;19.38;91.01;100496.28;4955924;28;20046;-75
2021/09/16 07:10:04;;;;;;;11.70;6.20;;;;;;;19.57;90.26;100503.31;4965577;28;20046;-76
2021/09/16 07:12:31;;;;;;;14.30;7.47;;;;;;;19.41;90.42;100504.00;4969090;28;20074;-76
2021/09/16 07:15:29;;;;;;;13.20;6.53;;;;;;;20.29;85.07;100503.31;4975929;28;20046;-83
2021/09/16 07:18:28;;;;;;;12.57;7.53;;;;;;;20.39;83.44;100504.88;4970503;28;20494;-81
2021/09/16 07:21:02;;;;;;;11.85;6.03;;;;;;;20.56;83.76;100502.34;4969794;28;20402;-77
2021/09/16 07:23:32;;;;;;;13.65;6.28;;;;;;;20.51;82.80;100507.34;4968107;28;20066;-77
2021/09/16 07:26:13;;;;;;;14.07;5.75;;;;;;;20.20;82.99;100500.56;4985625;28;20081;-77
2021/09/16 07:28:41;;;;;;;12.93;5.47;;;;;;;19.94;84.47;100503.19;4986649;28;20508;-77
2021/09/16 07:31:11;;;;;;;12.13;6.35;;;;;;;19.89;83.69;100521.53;4967938;28;20057;-76
2021/09/16 07:33:42;;;;;;;13.20;5.93;;;;;;;20.81;79.61;100514.88;4986812;28;20058;-75
2021/09/16 07:36:12;;;;;;;13.88;6.70;;;;;;;21.13;76.93;100519.53;4975179;28;20254;-78
2021/09/16 07:38:41;;;;;;;12.95;5.63;;;;;;;21.05;76.93;100514.16;4991115;28;20050;-77
2021/09/16 07:41:14;;;;;;;17.20;5.78;;;;;;;20.55;78.09;100517.56;4993398;28;20034;-77
2021/09/16 07:43:44;;;;;;;13.65;5.38;;;;;;;20.47;77.59;100518.34;4989768;28;20054;-76
2021/09/16 07:46:12;;;;;;;12.57;4.90;;;;;;;20.98;75.62;100516.63;4971813;28;20053;-77
2021/09/16 07:48:40;;;;;;;10.18;4.55;;;;;;;20.93;75.74;100518.94;4972249;28;20093;-76
2021/09/16 07:51:11;;;;;;;10.40;4.30;;;;;;;21.02;75.17;100519.81;4991163;28;20050;-77
2021/09/16 07:53:39;;;;;;;10.15;4.95;;;;;;;20.55;76.02;100522.09;4970798;28;20417;-76
2021/09/16 07:56:09;;;;;;;9.15;4.10;;;;;;;20.40;76.16;100519.94;4987012;28;20070;-76
2021/09/16 07:58:36;;;;;;;6.88;4.13;;;;;;;20.52;77.29;100528.56;4988668;28;20497;-78
2021/09/16 08:01:09;;;;;;;10.68;4.05;;;;;;;20.78;76.54;100525.88;4976242;28;20058;-77
2021/09/16 08:03:38;;;;;;;7.13;4.10;;;;;;;20.77;75.97;100521.53;4974818;28;20136;-76
2021/09/16 08:06:06;;;;;;;12.00;4.38;;;;;;;20.32;76.43;100524.41;4973640;28;20513;-76
2021/09/16 08:08:34;;;;;;;8.02;3.90;;;;;;;20.50;77.06;100527.06;4970189;28;20512;-76
2021/09/16 08:11:01;;;;;;;9.50;3.75;;;;;;;20.74;74.53;100525.38;4957283;28;20125;-77
2021/09/16 08:13:28;;;;;;;8.25;3.50;;;;;;;20.12;74.68;100537.09;4954791;28;20050;-76
2021/09/16 08:15:56;;;;;;;5.82;2.95;;;;;;;20.29;74.48;100528.22;4972315;28;20046;-77
2021/09/16 08:18:23;;;;;;;6.72;2.60;;;;;;;20.33;74.23;100528.75;4955639;28;20058;-77
2021/09/16 08:20:53;;;;;;;6.57;3.63;;;;;;;20.20;75.37;100532.66;4978272;28;20040;-77
2021/09/16 08:23:23;;;;;;;5.90;3.17;;;;;;;20.54;74.46;100537.28;4970373;28;20545;-75
2021/09/16 08:25:51;;;;;;;6.95;3.20;;;;;;;20.51;74.54;100528.75;4968126;28;20117;-77
2021/09/16 08:28:18;;;;;;;6.82;2.83;;;;;;;20.07;77.47;100526.84;4970124;28;20125;-77
2021/09/16 08:30:46;;;;;;;5.07;2.78;;;;;;;19.90;76.53;100530.38;4951739;28;20148;-75
2021/09/16 08:33:15;;;;;;;6.22;2.85;;;;;;;20.27;74.23;100532.06;4968196;28;20050;-75
2021/09/16 08:35:42;;;;;;;7.22;2.70;;;;;;;20.35;74.02;100537.44;4985483;28;20054;-77
2021/09/16 08:38:10;;;;;;;8.20;2.15;;;;;;;20.71;71.71;100544.44;4981689;28;20042;-79
2021/09/16 08:40:37;;;;;;;6.18;2.10;;;;;;;20.82;69.56;100537.97;4983971;28;20058;-77
2021/09/16 08:43:05;;;;;;;5.50;1.90;;;;;;;20.86;68.28;100539.31;4946942;28;20109;-77
2021/09/16 08:45:32;;;;;;;3.65;1.50;;;;;;;20.81;66.08;100536.28;4936704;28;20096;-76
2021/09/16 08:48:00;;;;;;;5.97;1.60;;;;;;;20.51;67.10;100542.94;4971918;28;20113;-75
2021/09/16 08:50:29;;;;;;;8.80;2.25;;;;;;;20.37;67.16;100541.66;4968932;28;20473;-78
2021/09/16 08:52:56;;;;;;;3.03;1.80;;;;;;;19.93;68.77;100538.94;4979115;28;20580;-75
2021/09/16 08:55:25;;;;;;;5.00;1.58;;;;;;;20.46;68.79;100539.88;4964684;28;20409;-76
2021/09/16 08:57:55;;;;;;;3.95;1.73;;;;;;;20.98;65.50;100539.88;4972907;28;20093;-76
2021/09/16 09:00:23;;;;;;;5.95;1.55;;;;;;;21.12;65.61;100541.97;4985582;28;20157;-76
2021/09/16 09:02:51;;;;;;;9.55;1.70;;;;;;;21.27;65.45;100542.19;4990107;28;20446;-75
2021/09/16 09:05:20;;;;;;;5.93;1.33;;;;;;;20.98;63.38;100537.19;4964918;28;20039;-76
2021/09/16 09:07:51;;;;;;;6.40;1.70;;;;;;;20.72;64.12;100540.75;4951586;28;20095;-74
2021/09/16 09:10:54;;;;;;;3.05;1.55;;;;;;;19.92;66.45;100539.09;4997678;28;20060;-75
2021/09/16 09:13:34;;;;;;;5.22;1.67;;;;;;;19.56;69.35;100539.03;4970101;28;20058;-75
2021/09/16 09:16:04;;;;;;;5.38;1.60;;;;;;;19.27;72.98;100546.38;4986623;28;20136;-76
2021/09/16 09:18:48;;;;;;;8.57;1.83;;;;;;;18.84;75.21;100551.31;4976329;28;20086;-75
2021/09/16 09:21:17;;;;;;;5.93;2.00;;;;;;;18.54;78.66;100549.69;4983175;28;20096;-75
2021/09/16 09:23:46;;;;;;;6.35;2.10;;;;;;;18.95;76.75;100545.78;4978793;28;20133;-75
2021/09/16 09:26:30;;;;;;;3.08;1.55;;;;;;;19.37;74.06;100547.16;4984589;28;20505;-76
2021/09/16 09:29:06;;;;;;;5.15;1.88;;;;;;;19.70;72.09;100540.38;4981833;28;20130;-76
2021/09/16 09:31:59;;;;;;;10.27;1.95;;;;;;;19.48;72.58;100546.94;4957834;28;20081;-76
2021/09/16 09:34:31;;;;;;;2.58;1.08;;;;;;;19.14;73.46;100552.91;4942102;28;20652;-77
2021/09/16 09:37:15;;;;;;;5.22;2.22;;;;;;;18.97;74.20;100554.50;4987427;28;20137;-75
2021/09/16 09:39:47;;;;;;;3.55;1.27;;;;;;;18.89;72.49;100558.88;4984989;28;20058;-76
2021/09/16 09:42:22;;;;;;;6.32;1.55;;;;;;;18.25;76.53;100572.88;4988258;28;20138;-77
2021/09/16 09:45:06;;;;;;;4.55;1.80;;;;;;;18.51;75.65;100565.13;4965857;28;20402;-77
2021/09/16 09:47:42;;;;;;;8.45;1.70;;;;;;;18.46;74.79;100560.22;4968685;28;20051;-76
2021/09/16 09:50:25;;;;;;;10.95;1.58;;;;;;;18.60;73.48;100556.28;4937175;28;20138;-75
2021/09/16 09:52:53;;;;;;;7.88;1.70;;;;;;;18.68;73.19;100565.22;4976344;28;20526;-74
2021/09/16 09:55:24;;;;;;;5.15;1.45;;;;;;;18.92;69.76;100561.28;4984607;28;20151;-77
2021/09/16 09:58:03;;;;;;;3.60;1.30;;;;;;;19.34;69.20;100568.81;4971563;28;20393;-75
2021/09/16 10:00:30;;;;;;;5.95;1.55;;;;;;;19.72;67.12;100557.94;4954710;28;20387;-77
2021/09/16 10:03:00;;;;;;;7.88;1.70;;;;;;;20.09;66.22;100562.31;4975018;28;20129;-75
2021/09/16 10:05:34;;;;;;;4.20;0.82;;;;;;;20.42;64.13;100555.38;4965797;28;20113;-75
2021/09/16 10:08:14;;;;;;;5.07;1.08;;;;;;;20.12;64.52;100556.63;4971498;28;20053;-76
2021/09/16 10:10:51;;;;;;;4.25;1.02;;;;;;;19.66;64.95;100555.03;4966546;28;20042;-74
2021/09/16 10:13:21;;;;;;;5.43;1.33;;;;;;;19.15;65.27;100565.25;4968072;28;20613;-75
2021/09/16 10:15:50;;;;;;;2.47;0.63;;;;;;;18.79;65.18;100568.75;4953662;28;20058;-76
2021/09/16 10:18:19;;;;;;;4.13;1.00;;;;;;;19.03;65.68;100565.59;4983615;28;20058;-76
2021/09/16 10:20:48;;;;;;;4.97;1.38;;;;;;;19.34;63.92;100558.97;4935804;28;20397;-75
2021/09/16 10:23:17;;;;;;;3.05;0.98;;;;;;;19.69;62.83;100560.91;4986047;28;20132;-75
2021/09/16 10:25:47;;;;;;;5.53;0.82;;;;;;;19.61;63.26;100558.16;4992694;28;20058;-75
2021/09/16 10:28:18;;;;;;;3.95;0.93;;;;;;;20.00;62.10;100563.22;4944652;28;20128;-82
2021/09/16 10:30:50;;;;;;;2.88;0.70;;;;;;;20.56;60.53;100567.38;4988441;28;20359;-74
2021/09/16 10:33:22;;;;;;;3.30;0.95;;;;;;;20.58;60.30;100557.38;4949826;28;20382;-76
2021/09/16 10:36:00;;;;;;;8.75;1.52;;;;;;;20.32;59.39;100559.16;4965454;28;20074;-76
2021/09/16 10:38:44;;;;;;;3.28;0.77;;;;;;;20.35;59.56;100562.34;4984601;28;21495;-76
2021/09/16 10:41:32;;;;;;;2.78;1.45;;;;;;;20.39;60.57;100561.03;4952359;28;20133;-75
2021/09/16 10:43:59;;;;;;;9.05;1.85;;;;;;;20.65;60.03;100563.75;4976049;28;20097;-75
2021/09/16 10:46:59;;;;;;;5.22;0.90;;;;;;;20.53;60.45;100569.53;4984051;28;20185;-76
2021/09/16 10:49:29;;;;;;;4.50;0.98;;;;;;;20.59;59.65;100571.59;4965212;28;20055;-76
2021/09/16 10:52:15;;;;;;;4.90;0.95;;;;;;;20.36;59.76;100571.22;4952031;28;20055;-75
2021/09/16 10:54:49;;;;;;;3.70;0.93;;;;;;;20.18;60.90;100569.41;4982542;28;20050;-76
2021/09/16 10:57:19;;;;;;;2.27;0.67;;;;;;;19.94;62.21;100564.66;4987353;28;20135;-76
2021/09/16 10:59:48;;;;;;;3.92;0.77;;;;;;;19.86;62.12;100564.59;4967360;28;20105;-75
2021/09/16 11:02:26;;;;;;;2.45;0.70;;;;;;;19.73;62.90;100570.31;4988733;28;20117;-74
2021/09/16 11:04:57;;;;;;;3.40;0.90;;;;;;;18.93;64.14;100566.47;4982046;28;20561;-75
2021/09/16 11:07:38;;;;;;;7.53;0.98;;;;;;;18.98;65.67;100566.84;4988376;28;20055;-77
2021/09/16 11:10:15;;;;;;;3.83;0.60;;;;;;;19.22;64.84;100579.66;4960859;28;20105;-75
2021/09/16 11:12:56;;;;;;;4.30;0.85;;;;;;;19.19;65.23;100585.31;4987992;28;20712;-75
2021/09/16 11:15:28;;;;;;;6.45;1.25;;;;;;;18.89;65.51;100575.72;4980829;28;20054;-76
2021/09/16 11:18:11;;;;;;;10.65;1.30;;;;;;;18.91;66.10;100583.59;4986626;28;20133;-76
2021/09/16 11:20:40;;;;;;;4.03;1.10;;;;;;;18.79;67.22;100576.75;4982415;28;20050;-77